Arlington, Maryland
Current Conditions -  °F | °C
As of 9:54 PM on Saturday 22 Nov 2014 (Local Time) from KBWI Reporting Station
Overcast Overcast  
Wind Chill:   Ceiling: 11000
Heat Index:   Visibility: 10mi
Dew Point: -8°   Wind: 5mph
Humidity: 37%   Direction: 210°SSW
Pressure: 30.25"   Gusts: NA
Location:  39.3453°N, 76.6832°W
Report Text: KBWI 230254Z 21004KT 10SM FEW095 OVC110 06/M08 A3025 RMK AO2 SLP245 T00561083 57013
Loading
Personal Weather Stations






























Interactive Weather Map New forecast layout! Learn more

10-Day Weather Forecast

Advertisements
Track Severe Weather on mobile